Time;durP1;ratioP1;P1;durP2;ratioP2;P2;SDS_P1;SDS_P2;PMS_P1;PMS_P2;Temp;Humidity;BMP_temperature;BMP_pressure;BME280_temperature;BME280_humidity;BME280_pressure;Samples;Min_cycle;Max_cycle;Signal;HPM_P1;HPM_P2
2022/06/18 00:01:34;;;;;;;;;;;19.90;99.90;;;;;;5038501;28;19939;-82
2022/06/18 00:04:06;;;;;;;;;;;19.90;99.90;;;;;;5057001;28;20326;-81
2022/06/18 00:06:35;;;;;;;;;;;20.00;99.90;;;;;;5033170;28;20344;-82
2022/06/18 00:09:02;;;;;;;;;;;20.00;99.90;;;;;;5038418;28;20273;-82
2022/06/18 00:14:14;;;;;;;;;;;20.00;99.90;;;;;;5038189;28;19984;-82
2022/06/18 00:16:40;;;;;;;;;;;20.00;99.90;;;;;;5037144;28;20305;-83
2022/06/18 00:19:07;;;;;;;;;;;20.00;99.90;;;;;;5040898;28;19944;-83
2022/06/18 00:21:36;;;;;;;;;;;20.00;99.90;;;;;;5036930;28;19994;-82
2022/06/18 00:24:02;;;;;;;;;;;20.00;99.90;;;;;;5035178;28;19930;-82
2022/06/18 00:26:29;;;;;;;;;;;20.00;99.90;;;;;;5047034;28;19933;-82
2022/06/18 00:28:56;;;;;;;;;;;20.00;99.90;;;;;;5039891;28;19953;-83
2022/06/18 00:31:22;;;;;;;;;;;20.00;99.90;;;;;;5028145;28;19932;-83
2022/06/18 00:33:49;;;;;;;;;;;20.00;99.90;;;;;;5024938;28;20006;-83
2022/06/18 00:36:17;;;;;;;;;;;20.00;99.90;;;;;;5027929;28;19929;-83
2022/06/18 00:38:47;;;;;;;;;;;20.00;99.90;;;;;;5029985;28;20019;-83
2022/06/18 00:41:16;;;;;;;;;;;20.00;99.90;;;;;;5032857;28;19978;-84
2022/06/18 00:43:47;;;;;;;;;;;20.00;99.90;;;;;;5048212;28;19921;-81
2022/06/18 00:46:16;;;;;;;;;;;20.00;99.90;;;;;;5039836;28;19933;-83
2022/06/18 00:48:46;;;;;;;;;;;20.00;99.90;;;;;;5048831;28;19968;-82
2022/06/18 00:51:16;;;;;;;;;;;20.00;99.90;;;;;;5048005;28;19929;-83
2022/06/18 00:53:46;;;;;;;;;;;20.00;99.90;;;;;;5042443;28;20073;-82
2022/06/18 00:56:19;;;;;;;;;;;19.90;99.90;;;;;;5037870;28;19933;-82
2022/06/18 00:58:49;;;;;;;;;;;19.90;99.90;;;;;;5039424;28;19928;-84
2022/06/18 01:01:21;;;;;;;;;;;19.90;99.90;;;;;;5049466;28;20009;-82
2022/06/18 01:03:48;;;;;;;;;;;19.90;99.90;;;;;;5048491;28;19951;-81
2022/06/18 01:06:17;;;;;;;;;;;20.00;99.90;;;;;;5063421;28;19948;-83
2022/06/18 01:08:45;;;;;;;;;;;19.90;99.90;;;;;;5041165;28;19933;-82
2022/06/18 01:11:17;;;;;;;;;;;20.10;99.90;;;;;;5045602;28;19934;-83
2022/06/18 01:13:44;;;;;;;;;;;20.00;99.90;;;;;;5054916;28;19944;-83
2022/06/18 01:16:16;;;;;;;;;;;19.90;99.90;;;;;;5032164;28;19944;-83
2022/06/18 01:18:44;;;;;;;;;;;19.90;99.90;;;;;;5049391;28;19937;-82
2022/06/18 01:21:16;;;;;;;;;;;19.90;99.90;;;;;;5059866;28;19952;-83
2022/06/18 01:23:46;;;;;;;;;;;19.90;99.90;;;;;;5057219;28;19921;-84
2022/06/18 01:26:19;;;;;;;;;;;19.90;99.90;;;;;;5059825;28;19925;-82
2022/06/18 01:28:46;;;;;;;;;;;19.90;99.90;;;;;;5048427;28;19925;-83
2022/06/18 01:31:15;;;;;;;;;;;19.90;99.90;;;;;;5060052;28;19966;-81
2022/06/18 01:33:45;;;;;;;;;;;19.90;99.90;;;;;;5050116;28;20417;-83
2022/06/18 01:36:13;;;;;;;;;;;19.90;99.90;;;;;;5036208;28;19972;-83
2022/06/18 01:38:43;;;;;;;;;;;19.90;99.90;;;;;;5063941;28;20382;-83
2022/06/18 01:44:02;;;;;;;;;;;20.00;99.90;;;;;;5030593;28;20004;-82
2022/06/18 01:46:31;;;;;;;;;;;20.00;99.90;;;;;;5047694;28;20004;-81
2022/06/18 01:48:58;;;;;;;;;;;20.00;99.90;;;;;;5052058;28;19921;-83
2022/06/18 01:51:30;;;;;;;;;;;20.00;99.90;;;;;;5057001;28;19923;-83
2022/06/18 01:53:59;;;;;;;;;;;20.00;99.90;;;;;;5062300;28;19913;-82
2022/06/18 01:56:30;;;;;;;;;;;19.90;99.90;;;;;;5044195;28;19933;-81
2022/06/18 01:59:00;;;;;;;;;;;19.90;99.90;;;;;;5030086;28;19951;-82
2022/06/18 02:01:39;;;;;;;;;;;19.90;99.90;;;;;;5035457;28;19936;-82
2022/06/18 02:04:05;;;;;;;;;;;19.90;99.90;;;;;;5031733;28;19940;-82
2022/06/18 02:06:34;;;;;;;;;;;19.90;99.90;;;;;;5035787;28;19924;-82
2022/06/18 02:09:02;;;;;;;;;;;19.90;99.90;;;;;;5036552;28;19936;-82
2022/06/18 02:11:28;;;;;;;;;;;19.90;99.90;;;;;;5030280;28;19944;-82
2022/06/18 02:13:59;;;;;;;;;;;19.90;99.90;;;;;;5036803;28;19937;-82
2022/06/18 02:16:30;;;;;;;;;;;21.10;99.90;;;;;;5031596;28;19925;-82
2022/06/18 02:18:59;;;;;;;;;;;19.90;99.90;;;;;;5037221;28;19944;-82
2022/06/18 02:21:26;;;;;;;;;;;19.90;99.90;;;;;;5041117;28;19933;-83
2022/06/18 02:23:54;;;;;;;;;;;19.90;99.90;;;;;;5034599;28;19929;-84
2022/06/18 02:26:22;;;;;;;;;;;19.90;99.90;;;;;;5043982;28;19925;-82
2022/06/18 02:28:50;;;;;;;;;;;19.90;99.90;;;;;;5040180;28;19932;-82
2022/06/18 02:31:18;;;;;;;;;;;19.90;99.90;;;;;;5042068;28;19925;-82
2022/06/18 02:33:47;;;;;;;;;;;19.90;99.90;;;;;;5041192;28;19959;-82
2022/06/18 02:36:16;;;;;;;;;;;19.90;99.90;;;;;;5038105;28;20843;-83
2022/06/18 02:38:44;;;;;;;;;;;19.90;99.90;;;;;;5038167;28;19959;-85
2022/06/18 02:41:11;;;;;;;;;;;19.90;99.90;;;;;;5041006;28;19948;-83
2022/06/18 02:43:39;;;;;;;;;;;19.80;99.90;;;;;;5034179;28;20297;-84
2022/06/18 02:46:06;;;;;;;;;;;19.80;99.90;;;;;;5043358;28;20052;-83
2022/06/18 02:48:33;;;;;;;;;;;19.70;99.90;;;;;;5035242;28;19925;-82
2022/06/18 02:51:00;;;;;;;;;;;19.60;99.90;;;;;;5043677;28;19925;-83
2022/06/18 02:53:29;;;;;;;;;;;19.50;99.90;;;;;;5038952;28;19924;-83
2022/06/18 02:55:57;;;;;;;;;;;19.40;99.90;;;;;;5039096;28;20021;-82
2022/06/18 02:58:25;;;;;;;;;;;19.40;99.90;;;;;;5038492;28;19940;-84
2022/06/18 03:00:54;;;;;;;;;;;19.30;99.90;;;;;;5037291;28;19933;-84
2022/06/18 03:03:22;;;;;;;;;;;19.20;99.90;;;;;;5043121;28;19933;-83
2022/06/18 03:05:49;;;;;;;;;;;19.20;99.90;;;;;;5041028;28;20015;-84
2022/06/18 03:08:16;;;;;;;;;;;19.20;99.90;;;;;;5044153;28;19928;-84
2022/06/18 03:13:28;;;;;;;;;;;19.30;99.90;;;;;;5039013;28;20455;-85
2022/06/18 03:15:57;;;;;;;;;;;19.10;99.90;;;;;;5043350;28;19929;-83
2022/06/18 03:18:25;;;;;;;;;;;19.10;99.90;;;;;;5017871;28;19940;-83
2022/06/18 03:20:57;;;;;;;;;;;19.10;99.90;;;;;;5040855;28;20011;-83
2022/06/18 03:23:24;;;;;;;;;;;19.10;99.90;;;;;;5034190;28;19956;-84
2022/06/18 03:25:53;;;;;;;;;;;19.10;99.90;;;;;;5035559;28;19925;-84
2022/06/18 03:28:21;;;;;;;;;;;19.10;99.90;;;;;;5028198;28;19932;-83
2022/06/18 03:30:48;;;;;;;;;;;19.10;99.90;;;;;;5033197;28;19913;-84
2022/06/18 03:33:15;;;;;;;;;;;19.20;99.90;;;;;;5042038;28;19938;-84
2022/06/18 03:35:44;;;;;;;;;;;19.20;99.90;;;;;;5040924;28;19936;-84
2022/06/18 03:38:11;;;;;;;;;;;19.20;99.90;;;;;;5052211;28;19917;-85
2022/06/18 03:40:38;;;;;;;;;;;19.30;99.90;;;;;;5059569;28;19988;-84
2022/06/18 03:43:06;;;;;;;;;;;19.30;99.90;;;;;;5050611;28;19933;-84
2022/06/18 03:45:36;;;;;;;;;;;19.30;99.90;;;;;;5045559;28;19983;-85
2022/06/18 03:48:03;;;;;;;;;;;19.30;99.90;;;;;;5044476;28;19933;-84
2022/06/18 03:50:30;;;;;;;;;;;19.30;99.90;;;;;;5031057;28;19925;-83
2022/06/18 03:52:57;;;;;;;;;;;19.40;99.90;;;;;;5034588;28;19929;-84
2022/06/18 03:55:24;;;;;;;;;;;19.40;99.90;;;;;;5037610;28;19925;-84
2022/06/18 03:57:51;;;;;;;;;;;19.70;99.90;;;;;;5036471;28;19930;-84
2022/06/18 04:00:24;;;;;;;;;;;19.40;99.90;;;;;;5017237;28;19937;-84
2022/06/18 04:02:56;;;;;;;;;;;19.40;99.90;;;;;;5031483;28;19925;-85
2022/06/18 04:05:24;;;;;;;;;;;19.50;99.90;;;;;;5051676;28;19929;-86
2022/06/18 04:07:50;;;;;;;;;;;19.70;99.90;;;;;;5035992;28;19979;-84
2022/06/18 04:10:37;;;;;;;;;;;19.60;99.90;;;;;;5048917;28;19929;-84
2022/06/18 04:13:04;;;;;;;;;;;19.70;99.90;;;;;;5015384;28;19949;-84
2022/06/18 04:15:47;;;;;;;;;;;21.90;99.90;;;;;;5038260;28;19929;-84
2022/06/18 04:18:24;;;;;;;;;;;19.80;99.90;;;;;;5035617;28;19929;-84
2022/06/18 04:20:51;;;;;;;;;;;19.90;99.90;;;;;;5042819;28;20024;-84
2022/06/18 04:23:19;;;;;;;;;;;20.00;99.90;;;;;;5030631;28;19929;-84
2022/06/18 04:25:46;;;;;;;;;;;20.10;99.90;;;;;;5035386;28;19940;-84
2022/06/18 04:28:16;;;;;;;;;;;20.20;99.90;;;;;;5037196;28;19929;-85
2022/06/18 04:30:52;;;;;;;;;;;20.30;99.90;;;;;;5028970;28;19926;-84
2022/06/18 04:33:26;;;;;;;;;;;20.40;99.90;;;;;;5021907;28;20036;-85
2022/06/18 04:36:07;;;;;;;;;;;20.70;99.90;;;;;;5034657;28;19929;-85
2022/06/18 04:38:34;;;;;;;;;;;20.60;99.90;;;;;;5029634;28;19925;-85
2022/06/18 04:41:31;;;;;;;;;;;20.70;99.90;;;;;;5030761;28;19940;-85
2022/06/18 04:44:07;;;;;;;;;;;20.90;99.90;;;;;;5036207;28;19929;-85
2022/06/18 04:46:36;;;;;;;;;;;21.10;99.90;;;;;;5049204;28;19932;-85
2022/06/18 04:49:02;;;;;;;;;;;21.20;99.90;;;;;;5042381;28;19925;-85
2022/06/18 04:51:29;;;;;;;;;;;21.30;99.90;;;;;;5042124;28;19925;-85
2022/06/18 04:53:56;;;;;;;;;;;22.60;99.90;;;;;;5042168;28;19935;-85
2022/06/18 04:56:24;;;;;;;;;;;21.60;99.90;;;;;;5016307;28;20016;-84
2022/06/18 04:58:50;;;;;;;;;;;21.80;99.90;;;;;;5039187;28;20396;-85
2022/06/18 05:01:28;;;;;;;;;;;21.90;99.90;;;;;;5032304;28;20015;-85
2022/06/18 05:04:01;;;;;;;;;;;22.10;99.90;;;;;;5022943;28;19929;-85
2022/06/18 05:06:54;;;;;;;;;;;22.30;99.90;;;;;;5009686;28;19929;-85
2022/06/18 05:09:36;;;;;;;;;;;22.50;99.90;;;;;;5027111;28;20621;-85
2022/06/18 05:12:17;;;;;;;;;;;22.90;99.90;;;;;;5043902;28;19924;-85
2022/06/18 05:14:49;;;;;;;;;;;22.90;99.90;;;;;;5049472;28;19939;-85
2022/06/18 05:17:19;;;;;;;;;;;23.20;99.90;;;;;;5036761;28;20015;-85
2022/06/18 05:19:47;;;;;;;;;;;23.40;99.90;;;;;;5038383;28;19925;-85
2022/06/18 05:22:14;;;;;;;;;;;23.70;99.90;;;;;;5034841;28;19969;-85
2022/06/18 05:24:41;;;;;;;;;;;23.70;99.90;;;;;;5031090;28;19929;-85
2022/06/18 05:27:25;;;;;;;;;;;24.10;99.90;;;;;;5031999;28;20295;-85
2022/06/18 05:29:52;;;;;;;;;;;24.20;99.90;;;;;;5033631;28;19948;-85
2022/06/18 05:32:19;;;;;;;;;;;24.80;99.90;;;;;;5025536;28;20027;-85
2022/06/18 05:34:48;;;;;;;;;;;24.80;99.90;;;;;;5026123;28;19939;-85
2022/06/18 05:37:18;;;;;;;;;;;25.60;99.90;;;;;;5021162;28;19940;-85
2022/06/18 05:39:44;;;;;;;;;;;26.40;99.90;;;;;;5031659;28;19991;-85
2022/06/18 05:42:11;;;;;;;;;;;28.00;99.90;;;;;;5033898;28;19940;-85
2022/06/18 05:44:38;;;;;;;;;;;28.00;99.90;;;;;;5041352;28;20016;-85
2022/06/18 05:47:11;;;;;;;;;;;28.90;99.90;;;;;;5029825;28;19959;-85
2022/06/18 05:49:39;;;;;;;;;;;29.50;99.90;;;;;;5040975;28;19925;-84
2022/06/18 05:52:08;;;;;;;;;;;30.90;99.00;;;;;;5038239;28;19967;-86
2022/06/18 05:54:37;;;;;;;;;;;31.50;98.20;;;;;;5023681;28;19929;-86
2022/06/18 05:57:21;;;;;;;;;;;31.50;97.40;;;;;;5032432;28;20398;-85
2022/06/18 06:00:08;;;;;;;;;;;32.20;96.30;;;;;;5034025;28;19960;-85
2022/06/18 06:02:39;;;;;;;;;;;33.30;96.90;;;;;;5023408;28;19929;-85
2022/06/18 06:05:06;;;;;;;;;;;33.40;93.90;;;;;;5022820;28;19960;-84
2022/06/18 06:07:35;;;;;;;;;;;34.00;92.50;;;;;;5045116;28;19933;-85
2022/06/18 06:12:54;;;;;;;;;;;34.80;92.10;;;;;;5032270;28;19971;-84
2022/06/18 06:15:21;;;;;;;;;;;35.30;87.30;;;;;;5017290;28;19930;-85
2022/06/18 06:17:48;;;;;;;;;;;35.20;86.40;;;;;;5038832;28;19933;-83
2022/06/18 06:20:31;;;;;;;;;;;35.60;85.10;;;;;;5045387;28;20859;-83
2022/06/18 06:23:01;;;;;;;;;;;36.00;87.80;;;;;;5047011;28;19939;-84
2022/06/18 06:25:28;;;;;;;;;;;36.20;82.70;;;;;;5053237;28;19955;-83
2022/06/18 06:27:56;;;;;;;;;;;36.60;82.40;;;;;;5059505;28;19925;-85
2022/06/18 06:30:23;;;;;;;;;;;36.70;77.80;;;;;;5042966;28;19925;-84
2022/06/18 06:32:50;;;;;;;;;;;36.90;77.00;;;;;;5032410;28;19972;-85
2022/06/18 06:35:17;;;;;;;;;;;37.20;76.30;;;;;;5044057;28;19935;-83
2022/06/18 06:37:44;;;;;;;;;;;37.50;74.70;;;;;;5042955;28;20297;-84
2022/06/18 06:40:13;;;;;;;;;;;35.80;71.70;;;;;;5051189;28;19913;-84
2022/06/18 06:42:44;;;;;;;;;;;37.80;74.70;;;;;;5058886;28;19912;-85
2022/06/18 06:45:14;;;;;;;;;;;37.90;71.30;;;;;;5054107;28;19941;-85
2022/06/18 06:47:41;;;;;;;;;;;38.30;70.10;;;;;;5039289;28;19924;-85
2022/06/18 06:50:09;;;;;;;;;;;38.30;69.30;;;;;;5048415;28;19933;-84
2022/06/18 06:52:37;;;;;;;;;;;38.50;67.60;;;;;;5024348;28;19930;-84
2022/06/18 06:57:51;;;;;;;;;;;39.10;66.80;;;;;;5038073;28;20027;-83
2022/06/18 07:00:18;;;;;;;;;;;39.10;66.00;;;;;;5034362;28;19933;-86
2022/06/18 07:02:45;;;;;;;;;;;39.00;67.30;;;;;;5042837;28;20000;-85
2022/06/18 07:05:13;;;;;;;;;;;39.10;66.10;;;;;;5031502;28;20308;-83
2022/06/18 07:07:41;;;;;;;;;;;39.10;64.50;;;;;;5028134;28;20526;-83
2022/06/18 07:10:10;;;;;;;;;;;39.30;63.00;;;;;;5033939;28;19929;-83
2022/06/18 07:12:38;;;;;;;;;;;39.40;65.40;;;;;;5036679;28;19971;-84
2022/06/18 07:15:07;;;;;;;;;;;39.60;63.20;;;;;;5025644;28;19935;-87
2022/06/18 07:17:34;;;;;;;;;;;39.90;62.80;;;;;;5023216;28;20319;-84
2022/06/18 07:20:01;;;;;;;;;;;40.10;61.30;;;;;;5026470;28;20419;-83
2022/06/18 07:22:28;;;;;;;;;;;40.30;61.10;;;;;;5024071;28;20012;-84
2022/06/18 07:24:58;;;;;;;;;;;40.40;60.60;;;;;;5025828;28;20384;-84
2022/06/18 07:27:25;;;;;;;;;;;40.50;60.40;;;;;;5018715;28;20285;-85
2022/06/18 07:29:52;;;;;;;;;;;40.60;59.10;;;;;;5039378;28;19936;-83
2022/06/18 07:32:21;;;;;;;;;;;40.60;59.80;;;;;;5018556;28;19933;-84
2022/06/18 07:34:48;;;;;;;;;;;40.80;59.00;;;;;;5016818;28;20401;-83
2022/06/18 07:37:14;;;;;;;;;;;40.90;58.20;;;;;;5017388;28;20071;-83
2022/06/18 07:39:41;;;;;;;;;;;41.00;58.40;;;;;;5017766;28;19933;-87
2022/06/18 07:42:08;;;;;;;;;;;41.00;57.50;;;;;;5016123;28;19948;-85
2022/06/18 07:44:35;;;;;;;;;;;40.90;58.70;;;;;;5010037;28;20027;-85
2022/06/18 07:47:02;;;;;;;;;;;41.00;57.60;;;;;;5006839;28;19929;-86
2022/06/18 07:49:31;;;;;;;;;;;41.00;57.80;;;;;;5006290;28;20059;-84
2022/06/18 07:51:58;;;;;;;;;;;41.10;56.90;;;;;;5013351;28;19944;-82
2022/06/18 07:54:25;;;;;;;;;;;41.20;56.60;;;;;;5026835;28;20008;-84
2022/06/18 07:56:52;;;;;;;;;;;41.20;56.50;;;;;;5019902;28;19932;-83
2022/06/18 07:59:19;;;;;;;;;;;41.00;56.60;;;;;;5004645;28;19965;-84
2022/06/18 08:01:45;;;;;;;;;;;41.00;56.80;;;;;;5009562;28;19937;-84
2022/06/18 08:04:12;;;;;;;;;;;41.00;56.20;;;;;;5003622;28;20347;-84
2022/06/18 08:06:41;;;;;;;;;;;40.80;56.40;;;;;;5003894;28;19929;-84
2022/06/18 08:09:08;;;;;;;;;;;40.80;56.40;;;;;;5003079;28;19960;-85
2022/06/18 08:11:36;;;;;;;;;;;40.70;56.30;;;;;;5009191;28;19929;-83
2022/06/18 08:14:03;;;;;;;;;;;40.70;56.20;;;;;;5008333;28;19944;-83
2022/06/18 08:16:30;;;;;;;;;;;40.70;56.40;;;;;;5005204;28;20604;-83
2022/06/18 08:18:56;;;;;;;;;;;40.50;55.40;;;;;;5010103;28;22057;-83
2022/06/18 08:21:26;;;;;;;;;;;39.80;54.90;;;;;;5000808;28;20028;-84
2022/06/18 08:23:55;;;;;;;;;;;40.50;55.20;;;;;;5005693;28;19936;-83
2022/06/18 08:26:22;;;;;;;;;;;40.40;55.80;;;;;;5007963;28;20016;-84
2022/06/18 08:28:49;;;;;;;;;;;40.40;56.00;;;;;;5002501;28;19933;-83
2022/06/18 08:31:16;;;;;;;;;;;40.30;56.60;;;;;;5007587;28;19941;-86
2022/06/18 08:33:44;;;;;;;;;;;40.30;55.40;;;;;;5009917;28;19940;-85
2022/06/18 08:36:12;;;;;;;;;;;40.20;56.40;;;;;;5013072;28;19926;-86
2022/06/18 08:38:40;;;;;;;;;;;40.10;55.80;;;;;;5014761;28;20016;-86
2022/06/18 08:41:14;;;;;;;;;;;40.10;56.00;;;;;;5019373;28;19969;-85
2022/06/18 08:43:57;;;;;;;;;;;40.20;55.80;;;;;;5022084;28;19929;-86
2022/06/18 08:46:28;;;;;;;;;;;40.30;55.60;;;;;;5017764;28;20020;-84
2022/06/18 08:49:03;;;;;;;;;;;40.10;55.90;;;;;;5024982;28;19929;-85
2022/06/18 08:51:33;;;;;;;;;;;40.10;54.80;;;;;;5043404;28;19913;-83
2022/06/18 08:54:14;;;;;;;;;;;39.70;54.70;;;;;;5055239;28;19936;-85
2022/06/18 08:56:46;;;;;;;;;;;39.50;54.00;;;;;;5050838;28;19956;-85
2022/06/18 08:59:17;;;;;;;;;;;39.60;54.20;;;;;;5037581;28;19975;-86
2022/06/18 09:01:46;;;;;;;;;;;39.30;54.40;;;;;;5038286;28;20008;-84
2022/06/18 09:04:18;;;;;;;;;;;39.20;54.40;;;;;;5029605;28;19937;-84
2022/06/18 09:07:00;;;;;;;;;;;39.20;54.90;;;;;;5047093;28;20005;-83
2022/06/18 09:09:31;;;;;;;;;;;39.20;54.20;;;;;;5051133;28;19975;-83
2022/06/18 09:12:05;;;;;;;;;;;38.80;54.10;;;;;;5061390;28;19925;-85
2022/06/18 09:14:34;;;;;;;;;;;38.80;53.90;;;;;;5032893;28;19936;-84
2022/06/18 09:17:06;;;;;;;;;;;38.60;54.80;;;;;;5033384;28;19969;-84
2022/06/18 09:19:36;;;;;;;;;;;38.40;55.10;;;;;;5023158;28;19925;-83
2022/06/18 09:22:06;;;;;;;;;;;38.20;54.70;;;;;;5029608;28;20028;-86
2022/06/18 09:24:35;;;;;;;;;;;37.80;55.40;;;;;;5035888;28;19935;-84
2022/06/18 09:27:05;;;;;;;;;;;37.60;56.40;;;;;;5034833;28;19929;-85
2022/06/18 09:29:35;;;;;;;;;;;37.70;57.10;;;;;;5046486;28;20376;-85
2022/06/18 09:32:05;;;;;;;;;;;37.90;55.60;;;;;;5021278;28;20465;-86
2022/06/18 09:34:34;;;;;;;;;;;38.10;55.90;;;;;;5025045;28;19925;-85
2022/06/18 09:37:04;;;;;;;;;;;37.30;55.60;;;;;;5014848;28;20027;-85
2022/06/18 09:39:34;;;;;;;;;;;37.80;56.00;;;;;;5020311;28;19928;-86
2022/06/18 09:42:03;;;;;;;;;;;37.50;56.10;;;;;;5022034;28;20004;-86
2022/06/18 09:44:34;;;;;;;;;;;37.60;55.80;;;;;;5026151;28;19940;-82
2022/06/18 09:47:02;;;;;;;;;;;37.40;56.70;;;;;;5026017;28;20831;-86
2022/06/18 09:49:30;;;;;;;;;;;37.30;57.20;;;;;;5023127;28;20424;-86
2022/06/18 09:51:59;;;;;;;;;;;37.20;57.20;;;;;;5029334;28;19935;-85
2022/06/18 09:54:28;;;;;;;;;;;36.90;56.60;;;;;;5020505;28;19929;-84
2022/06/18 09:56:58;;;;;;;;;;;36.90;56.90;;;;;;5012511;28;20007;-85
2022/06/18 09:59:28;;;;;;;;;;;36.80;57.20;;;;;;5021928;28;19936;-84
2022/06/18 10:01:58;;;;;;;;;;;36.70;56.50;;;;;;5020914;28;19933;-85
2022/06/18 10:07:13;;;;;;;;;;;36.20;57.30;;;;;;5019282;28;19921;-86
2022/06/18 10:09:42;;;;;;;;;;;35.90;57.20;;;;;;5025430;28;19940;-86
2022/06/18 10:12:14;;;;;;;;;;;35.60;57.70;;;;;;5028751;28;19929;-85
2022/06/18 10:14:42;;;;;;;;;;;35.50;58.10;;;;;;5020359;28;19937;-85
2022/06/18 10:17:13;;;;;;;;;;;35.40;58.20;;;;;;5023690;28;19956;-85
2022/06/18 10:19:48;;;;;;;;;;;35.20;58.90;;;;;;5034413;28;19925;-85
2022/06/18 10:22:20;;;;;;;;;;;34.70;58.70;;;;;;5032649;28;20273;-86
2022/06/18 10:24:56;;;;;;;;;;;34.80;59.50;;;;;;5037883;28;19929;-84
2022/06/18 10:27:26;;;;;;;;;;;34.60;59.70;;;;;;5038519;28;19925;-85
2022/06/18 10:29:56;;;;;;;;;;;34.60;60.10;;;;;;5044978;28;19928;-85
2022/06/18 10:32:31;;;;;;;;;;;34.60;59.30;;;;;;5040420;28;19933;-84
2022/06/18 10:35:06;;;;;;;;;;;34.60;60.00;;;;;;5022982;28;19925;-84
2022/06/18 10:37:36;;;;;;;;;;;34.60;60.00;;;;;;5020275;28;19930;-85
2022/06/18 10:40:09;;;;;;;;;;;34.60;60.60;;;;;;5023321;28;20530;-86
2022/06/18 10:42:41;;;;;;;;;;;34.60;60.40;;;;;;5018941;28;19935;-86
2022/06/18 10:45:13;;;;;;;;;;;34.70;60.60;;;;;;5019101;28;19974;-85
2022/06/18 10:47:43;;;;;;;;;;;34.80;60.20;;;;;;5020616;28;19929;-84
2022/06/18 10:50:11;;;;;;;;;;;34.80;59.30;;;;;;5022629;28;19929;-85
2022/06/18 10:52:38;;;;;;;;;;;34.70;59.30;;;;;;5019217;28;19980;-83
2022/06/18 10:55:06;;;;;;;;;;;34.50;59.30;;;;;;5023429;28;19982;-83
2022/06/18 10:57:33;;;;;;;;;;;34.50;57.50;;;;;;5019707;28;19932;-84
2022/06/18 11:00:09;;;;;;;;;;;34.30;58.40;;;;;;5024610;28;19970;-83
2022/06/18 11:02:36;;;;;;;;;;;34.10;58.30;;;;;;5017253;28;19940;-83
2022/06/18 11:05:06;;;;;;;;;;;34.10;59.10;;;;;;5032307;28;19929;-82
2022/06/18 11:07:34;;;;;;;;;;;34.10;59.10;;;;;;5025968;28;20521;-83
2022/06/18 11:10:04;;;;;;;;;;;34.10;59.50;;;;;;5024506;28;20329;-82
2022/06/18 11:12:33;;;;;;;;;;;34.20;58.80;;;;;;5028574;28;20325;-83
2022/06/18 11:15:01;;;;;;;;;;;34.30;59.30;;;;;;5031772;28;20034;-83
2022/06/18 11:17:29;;;;;;;;;;;34.30;59.00;;;;;;5031151;28;20348;-84
2022/06/18 11:20:07;;;;;;;;;;;34.40;58.60;;;;;;5029827;28;19960;-83
2022/06/18 11:22:35;;;;;;;;;;;34.40;57.80;;;;;;5032048;28;20324;-84
2022/06/18 11:25:04;;;;;;;;;;;34.40;58.40;;;;;;5022066;28;19945;-82
2022/06/18 11:27:33;;;;;;;;;;;34.30;58.90;;;;;;5034422;28;20404;-83
2022/06/18 11:30:05;;;;;;;;;;;34.40;58.20;;;;;;5057022;28;19937;-83
2022/06/18 11:32:36;;;;;;;;;;;34.60;58.50;;;;;;5023618;28;19928;-82
2022/06/18 11:35:13;;;;;;;;;;;34.60;59.10;;;;;;5038908;28;19960;-84
2022/06/18 11:37:42;;;;;;;;;;;33.20;57.40;;;;;;5056642;28;19917;-83
2022/06/18 11:40:18;;;;;;;;;;;34.70;57.30;;;;;;5044584;28;20376;-84
2022/06/18 11:42:48;;;;;;;;;;;34.80;57.60;;;;;;5034592;28;19967;-84
2022/06/18 11:45:23;;;;;;;;;;;34.90;57.70;;;;;;5044618;28;19939;-84
2022/06/18 11:47:53;;;;;;;;;;;34.90;58.10;;;;;;5032907;28;19933;-83
2022/06/18 11:50:24;;;;;;;;;;;35.00;58.40;;;;;;5018694;28;19929;-83
2022/06/18 11:52:57;;;;;;;;;;;35.00;58.40;;;;;;5018603;28;19928;-83
2022/06/18 11:55:26;;;;;;;;;;;35.00;57.80;;;;;;5019058;28;19926;-84
2022/06/18 11:57:56;;;;;;;;;;;35.10;57.20;;;;;;5018776;28;20658;-83
2022/06/18 12:00:25;;;;;;;;;;;35.10;56.30;;;;;;5021845;28;20379;-84
2022/06/18 12:02:54;;;;;;;;;;;35.20;56.80;;;;;;5026250;28;19956;-84
2022/06/18 12:05:24;;;;;;;;;;;35.20;57.50;;;;;;5042831;28;19913;-86
2022/06/18 12:07:54;;;;;;;;;;;35.40;56.70;;;;;;5051304;28;19996;-87
2022/06/18 12:10:27;;;;;;;;;;;35.40;55.80;;;;;;5044343;28;19922;-86
2022/06/18 12:13:01;;;;;;;;;;;35.30;56.00;;;;;;5052083;28;19992;-84
2022/06/18 12:15:30;;;;;;;;;;;35.40;56.60;;;;;;5050184;28;19929;-87
2022/06/18 12:18:00;;;;;;;;;;;35.50;56.50;;;;;;5053472;28;20047;-83
2022/06/18 12:20:35;;;;;;;;;;;35.40;56.20;;;;;;5051059;28;19924;-86
2022/06/18 12:23:14;;;;;;;;;;;35.70;56.50;;;;;;5030273;28;19957;-86
2022/06/18 12:25:45;;;;;;;;;;;35.80;56.70;;;;;;5041897;28;19913;-82
2022/06/18 12:28:16;;;;;;;;;;;35.80;56.40;;;;;;5043081;28;19925;-83
2022/06/18 12:30:46;;;;;;;;;;;35.90;56.40;;;;;;5050388;28;19989;-84
2022/06/18 12:33:16;;;;;;;;;;;36.00;56.30;;;;;;5050934;28;19957;-82
2022/06/18 12:35:47;;;;;;;;;;;36.00;56.10;;;;;;5052695;28;19925;-82
2022/06/18 12:38:18;;;;;;;;;;;36.10;56.50;;;;;;5036873;28;19936;-84
2022/06/18 12:40:52;;;;;;;;;;;36.00;56.50;;;;;;5027047;28;19925;-84
2022/06/18 12:43:22;;;;;;;;;;;36.00;56.90;;;;;;5021442;28;19936;-84
2022/06/18 12:45:54;;;;;;;;;;;35.80;56.90;;;;;;5029755;28;19933;-88
2022/06/18 12:48:28;;;;;;;;;;;35.70;57.40;;;;;;5019368;28;20032;-83
2022/06/18 12:50:59;;;;;;;;;;;35.80;57.90;;;;;;5020018;28;19957;-83
2022/06/18 12:53:37;;;;;;;;;;;36.00;57.70;;;;;;5019427;28;19929;-82
2022/06/18 12:56:11;;;;;;;;;;;36.10;57.70;;;;;;5019323;28;19932;-81
2022/06/18 12:58:40;;;;;;;;;;;36.20;57.50;;;;;;5018460;28;20387;-82
2022/06/18 13:01:12;;;;;;;;;;;36.30;57.30;;;;;;5021350;28;19933;-82
2022/06/18 13:03:58;;;;;;;;;;;36.40;57.10;;;;;;5014531;28;19929;-82
2022/06/18 13:06:30;;;;;;;;;;;36.50;57.20;;;;;;5023271;28;19925;-82
2022/06/18 13:09:02;;;;;;;;;;;36.50;57.00;;;;;;5035527;28;19933;-82
2022/06/18 13:11:43;;;;;;;;;;;36.40;56.80;;;;;;5028291;28;20011;-82
2022/06/18 13:14:19;;;;;;;;;;;36.40;56.70;;;;;;5024743;28;19925;-82
2022/06/18 13:16:49;;;;;;;;;;;36.50;57.30;;;;;;5035113;28;19994;-83
2022/06/18 13:19:19;;;;;;;;;;;36.50;57.30;;;;;;5034810;28;19925;-82
2022/06/18 13:21:46;;;;;;;;;;;36.60;56.70;;;;;;5016888;28;19979;-81
2022/06/18 13:29:52;;;;;;;;;;;36.80;57.10;;;;;;5031137;28;20302;-82
2022/06/18 13:32:24;;;;;;;;;;;36.70;56.00;;;;;;5038555;28;19926;-83
2022/06/18 13:34:55;;;;;;;;;;;36.70;56.40;;;;;;5037643;28;19921;-83
2022/06/18 13:37:26;;;;;;;;;;;36.70;56.50;;;;;;5052745;28;19951;-83
2022/06/18 13:39:56;;;;;;;;;;;36.60;56.80;;;;;;5036835;28;19925;-83
2022/06/18 13:42:29;;;;;;;;;;;36.70;56.80;;;;;;5039605;28;20024;-83
2022/06/18 13:45:04;;;;;;;;;;;36.70;57.30;;;;;;5034583;28;19938;-83
2022/06/18 13:47:35;;;;;;;;;;;36.80;56.90;;;;;;5039897;28;19929;-84
2022/06/18 13:50:08;;;;;;;;;;;36.80;56.90;;;;;;5045502;28;20004;-83
2022/06/18 13:52:38;;;;;;;;;;;36.70;56.20;;;;;;5050962;28;19925;-82
2022/06/18 13:55:06;;;;;;;;;;;36.70;56.70;;;;;;5021503;28;19929;-83
2022/06/18 13:57:39;;;;;;;;;;;36.60;56.60;;;;;;5034831;28;20043;-83
2022/06/18 14:00:07;;;;;;;;;;;36.70;56.60;;;;;;5010310;28;20067;-82
2022/06/18 14:02:42;;;;;;;;;;;36.70;56.50;;;;;;5047515;28;19968;-84
2022/06/18 14:05:13;;;;;;;;;;;36.80;57.10;;;;;;5026742;28;19926;-83
2022/06/18 14:07:42;;;;;;;;;;;36.70;57.50;;;;;;5032021;28;20397;-83
2022/06/18 14:10:13;;;;;;;;;;;36.70;57.60;;;;;;5030893;28;20027;-83
2022/06/18 14:12:46;;;;;;;;;;;37.50;57.70;;;;;;5041664;28;20363;-83
2022/06/18 14:15:20;;;;;;;;;;;36.70;57.80;;;;;;5039853;28;19929;-83
2022/06/18 14:17:48;;;;;;;;;;;36.70;57.30;;;;;;5046972;28;20011;-84
2022/06/18 14:20:23;;;;;;;;;;;36.70;57.60;;;;;;5053154;28;19952;-82
2022/06/18 14:23:01;;;;;;;;;;;36.60;57.30;;;;;;5050413;28;19933;-82
2022/06/18 14:25:28;;;;;;;;;;;36.60;57.80;;;;;;5027633;28;20083;-85
2022/06/18 14:27:56;;;;;;;;;;;36.50;58.00;;;;;;5043235;28;19986;-83
2022/06/18 14:30:29;;;;;;;;;;;36.50;57.30;;;;;;5040290;28;20290;-83
2022/06/18 14:32:59;;;;;;;;;;;36.50;57.30;;;;;;5038984;28;19936;-84
2022/06/18 14:35:31;;;;;;;;;;;36.60;58.10;;;;;;5039991;28;19929;-83
2022/06/18 14:38:01;;;;;;;;;;;36.60;58.00;;;;;;5042126;28;19951;-84
2022/06/18 14:40:31;;;;;;;;;;;36.70;58.10;;;;;;5037756;28;20406;-84
2022/06/18 14:43:13;;;;;;;;;;;36.80;57.40;;;;;;5042693;28;20630;-83
2022/06/18 14:45:44;;;;;;;;;;;36.80;57.90;;;;;;5033580;28;19940;-81
2022/06/18 14:48:23;;;;;;;;;;;36.80;57.60;;;;;;5026691;28;19933;-81
2022/06/18 14:51:06;;;;;;;;;;;37.00;57.50;;;;;;5040140;28;19936;-81
2022/06/18 14:53:47;;;;;;;;;;;37.10;57.40;;;;;;5048916;28;19929;-81
2022/06/18 14:56:20;;;;;;;;;;;37.10;57.70;;;;;;5018473;28;19925;-81